sensor_id;sensor_type;location;lat;lon;timestamp;P1;durP1;ratioP1;P2;durP2;ratioP2
64186;SDS011;50491;39.484;-8.540;2022-10-22T00:01:08;17.98;;;4.13;;
64186;SDS011;50491;39.484;-8.540;2022-10-22T00:03:09;14.18;;;3.38;;
64186;SDS011;50491;39.484;-8.540;2022-10-22T00:05:10;16.88;;;3.83;;
64186;SDS011;50491;39.484;-8.540;2022-10-22T00:07:11;12.60;;;3.30;;
64186;SDS011;50491;39.484;-8.540;2022-10-22T00:09:12;13.73;;;3.70;;
64186;SDS011;50491;39.484;-8.540;2022-10-22T00:15:52;15.25;;;3.53;;
64186;SDS011;50491;39.484;-8.540;2022-10-22T00:18:11;12.70;;;3.13;;
64186;SDS011;50491;39.484;-8.540;2022-10-22T00:20:31;9.48;;;3.00;;
64186;SDS011;50491;39.484;-8.540;2022-10-22T00:22:33;12.13;;;3.00;;
64186;SDS011;50491;39.484;-8.540;2022-10-22T00:24:34;8.23;;;3.33;;
64186;SDS011;50491;39.484;-8.540;2022-10-22T00:26:36;10.93;;;2.97;;
64186;SDS011;50491;39.484;-8.540;2022-10-22T00:29:27;16.45;;;3.03;;
64186;SDS011;50491;39.484;-8.540;2022-10-22T00:31:46;10.15;;;2.63;;
64186;SDS011;50491;39.484;-8.540;2022-10-22T00:33:49;15.15;;;3.97;;
64186;SDS011;50491;39.484;-8.540;2022-10-22T00:36:08;6.25;;;2.15;;
64186;SDS011;50491;39.484;-8.540;2022-10-22T00:38:09;10.43;;;2.95;;
64186;SDS011;50491;39.484;-8.540;2022-10-22T00:42:35;13.93;;;3.28;;
64186;SDS011;50491;39.484;-8.540;2022-10-22T00:47:20;11.73;;;2.75;;
64186;SDS011;50491;39.484;-8.540;2022-10-22T00:49:47;13.98;;;3.15;;
64186;SDS011;50491;39.484;-8.540;2022-10-22T00:52:07;5.75;;;2.60;;
64186;SDS011;50491;39.484;-8.540;2022-10-22T00:54:27;7.32;;;2.90;;
64186;SDS011;50491;39.484;-8.540;2022-10-22T00:56:46;14.75;;;3.08;;
64186;SDS011;50491;39.484;-8.540;2022-10-22T00:58:50;7.50;;;2.67;;
64186;SDS011;50491;39.484;-8.540;2022-10-22T01:02:53;8.23;;;2.60;;
64186;SDS011;50491;39.484;-8.540;2022-10-22T01:04:55;9.48;;;2.22;;
64186;SDS011;50491;39.484;-8.540;2022-10-22T01:06:55;4.07;;;2.00;;
64186;SDS011;50491;39.484;-8.540;2022-10-22T01:09:05;8.00;;;2.28;;
64186;SDS011;50491;39.484;-8.540;2022-10-22T01:11:21;8.32;;;2.42;;
64186;SDS011;50491;39.484;-8.540;2022-10-22T01:16:52;11.05;;;2.40;;
64186;SDS011;50491;39.484;-8.540;2022-10-22T01:18:42;7.38;;;2.58;;
64186;SDS011;50491;39.484;-8.540;2022-10-22T01:31:50;7.35;;;2.45;;
64186;SDS011;50491;39.484;-8.540;2022-10-22T01:37:11;8.88;;;1.80;;
64186;SDS011;50491;39.484;-8.540;2022-10-22T01:39:13;2.47;;;1.52;;
64186;SDS011;50491;39.484;-8.540;2022-10-22T01:41:14;4.80;;;2.10;;
64186;SDS011;50491;39.484;-8.540;2022-10-22T01:43:15;7.20;;;2.63;;
64186;SDS011;50491;39.484;-8.540;2022-10-22T01:45:16;5.22;;;1.90;;
64186;SDS011;50491;39.484;-8.540;2022-10-22T01:47:20;5.15;;;1.88;;
64186;SDS011;50491;39.484;-8.540;2022-10-22T01:49:49;4.55;;;1.33;;
64186;SDS011;50491;39.484;-8.540;2022-10-22T01:59:07;2.65;;;1.17;;
64186;SDS011;50491;39.484;-8.540;2022-10-22T02:01:13;5.70;;;1.50;;
64186;SDS011;50491;39.484;-8.540;2022-10-22T02:03:43;3.08;;;1.30;;
64186;SDS011;50491;39.484;-8.540;2022-10-22T02:05:48;2.45;;;1.00;;
64186;SDS011;50491;39.484;-8.540;2022-10-22T02:08:26;3.20;;;1.27;;
64186;SDS011;50491;39.484;-8.540;2022-10-22T02:10:20;3.60;;;1.20;;
64186;SDS011;50491;39.484;-8.540;2022-10-22T02:12:21;3.95;;;1.00;;
64186;SDS011;50491;39.484;-8.540;2022-10-22T02:14:23;5.88;;;1.73;;
64186;SDS011;50491;39.484;-8.540;2022-10-22T02:17:09;3.20;;;0.90;;
64186;SDS011;50491;39.484;-8.540;2022-10-22T02:25:40;1.02;;;0.82;;
64186;SDS011;50491;39.484;-8.540;2022-10-22T02:30:54;3.15;;;0.95;;
64186;SDS011;50491;39.484;-8.540;2022-10-22T02:32:58;4.18;;;0.90;;
64186;SDS011;50491;39.484;-8.540;2022-10-22T02:35:02;3.10;;;1.25;;
64186;SDS011;50491;39.484;-8.540;2022-10-22T02:37:03;2.05;;;0.75;;
64186;SDS011;50491;39.484;-8.540;2022-10-22T02:39:05;2.20;;;1.20;;
64186;SDS011;50491;39.484;-8.540;2022-10-22T02:41:24;2.95;;;1.00;;
64186;SDS011;50491;39.484;-8.540;2022-10-22T02:43:47;1.50;;;1.30;;
64186;SDS011;50491;39.484;-8.540;2022-10-22T02:45:50;1.05;;;0.73;;
64186;SDS011;50491;39.484;-8.540;2022-10-22T02:47:51;3.05;;;1.20;;
64186;SDS011;50491;39.484;-8.540;2022-10-22T02:49:51;3.30;;;0.75;;
64186;SDS011;50491;39.484;-8.540;2022-10-22T02:51:52;2.47;;;0.95;;
64186;SDS011;50491;39.484;-8.540;2022-10-22T02:53:53;4.63;;;1.08;;
64186;SDS011;50491;39.484;-8.540;2022-10-22T02:56:18;1.73;;;0.88;;
64186;SDS011;50491;39.484;-8.540;2022-10-22T02:58:19;3.08;;;0.98;;
64186;SDS011;50491;39.484;-8.540;2022-10-22T03:00:38;4.57;;;1.00;;
64186;SDS011;50491;39.484;-8.540;2022-10-22T03:02:57;1.75;;;0.90;;
64186;SDS011;50491;39.484;-8.540;2022-10-22T03:05:16;3.83;;;1.35;;
64186;SDS011;50491;39.484;-8.540;2022-10-22T03:07:35;1.55;;;1.20;;
64186;SDS011;50491;39.484;-8.540;2022-10-22T03:09:36;3.55;;;0.80;;
64186;SDS011;50491;39.484;-8.540;2022-10-22T03:11:37;0.90;;;0.75;;
64186;SDS011;50491;39.484;-8.540;2022-10-22T03:13:37;1.63;;;1.05;;
64186;SDS011;50491;39.484;-8.540;2022-10-22T03:15:38;2.58;;;1.00;;
64186;SDS011;50491;39.484;-8.540;2022-10-22T03:17:39;2.50;;;0.80;;
64186;SDS011;50491;39.484;-8.540;2022-10-22T03:19:39;1.10;;;0.88;;
64186;SDS011;50491;39.484;-8.540;2022-10-22T03:22:06;1.73;;;0.77;;
64186;SDS011;50491;39.484;-8.540;2022-10-22T03:24:35;2.03;;;1.05;;
64186;SDS011;50491;39.484;-8.540;2022-10-22T03:26:38;1.27;;;0.80;;
64186;SDS011;50491;39.484;-8.540;2022-10-22T03:28:58;5.07;;;1.20;;
64186;SDS011;50491;39.484;-8.540;2022-10-22T03:31:50;4.43;;;0.98;;
64186;SDS011;50491;39.484;-8.540;2022-10-22T03:33:51;2.30;;;1.23;;
64186;SDS011;50491;39.484;-8.540;2022-10-22T03:35:52;2.55;;;0.95;;
64186;SDS011;50491;39.484;-8.540;2022-10-22T03:37:52;2.95;;;1.30;;
64186;SDS011;50491;39.484;-8.540;2022-10-22T03:40:12;1.63;;;0.73;;
64186;SDS011;50491;39.484;-8.540;2022-10-22T03:42:13;2.08;;;0.80;;
64186;SDS011;50491;39.484;-8.540;2022-10-22T03:44:15;1.67;;;1.13;;
64186;SDS011;50491;39.484;-8.540;2022-10-22T03:46:35;2.30;;;0.95;;
64186;SDS011;50491;39.484;-8.540;2022-10-22T03:49:26;4.68;;;2.42;;
64186;SDS011;50491;39.484;-8.540;2022-10-22T03:51:28;7.22;;;3.33;;
64186;SDS011;50491;39.484;-8.540;2022-10-22T03:53:29;6.63;;;4.63;;
64186;SDS011;50491;39.484;-8.540;2022-10-22T03:55:29;8.85;;;5.22;;
64186;SDS011;50491;39.484;-8.540;2022-10-22T03:57:30;9.45;;;4.22;;
64186;SDS011;50491;39.484;-8.540;2022-10-22T03:59:37;4.72;;;3.13;;
64186;SDS011;50491;39.484;-8.540;2022-10-22T04:01:40;10.23;;;3.88;;
64186;SDS011;50491;39.484;-8.540;2022-10-22T04:03:41;6.82;;;2.88;;
64186;SDS011;50491;39.484;-8.540;2022-10-22T04:05:41;3.13;;;2.20;;
64186;SDS011;50491;39.484;-8.540;2022-10-22T04:08:00;3.78;;;1.95;;
64186;SDS011;50491;39.484;-8.540;2022-10-22T04:10:01;3.67;;;2.20;;
64186;SDS011;50491;39.484;-8.540;2022-10-22T04:12:27;3.38;;;1.90;;
64186;SDS011;50491;39.484;-8.540;2022-10-22T04:14:28;9.10;;;2.10;;
64186;SDS011;50491;39.484;-8.540;2022-10-22T04:16:29;4.72;;;2.22;;
64186;SDS011;50491;39.484;-8.540;2022-10-22T04:18:56;2.85;;;1.60;;
64186;SDS011;50491;39.484;-8.540;2022-10-22T04:20:57;8.18;;;2.13;;
64186;SDS011;50491;39.484;-8.540;2022-10-22T04:22:58;6.32;;;1.75;;
64186;SDS011;50491;39.484;-8.540;2022-10-22T04:24:59;5.63;;;1.75;;
64186;SDS011;50491;39.484;-8.540;2022-10-22T04:26:59;8.45;;;1.95;;
64186;SDS011;50491;39.484;-8.540;2022-10-22T04:29:00;3.03;;;1.60;;
64186;SDS011;50491;39.484;-8.540;2022-10-22T04:31:06;6.72;;;1.90;;
64186;SDS011;50491;39.484;-8.540;2022-10-22T04:33:32;6.47;;;1.90;;
64186;SDS011;50491;39.484;-8.540;2022-10-22T04:35:37;9.15;;;1.95;;
64186;SDS011;50491;39.484;-8.540;2022-10-22T04:37:38;4.72;;;2.20;;
64186;SDS011;50491;39.484;-8.540;2022-10-22T04:39:39;9.02;;;2.05;;
64186;SDS011;50491;39.484;-8.540;2022-10-22T04:41:40;5.05;;;1.73;;
64186;SDS011;50491;39.484;-8.540;2022-10-22T04:43:41;6.35;;;2.35;;
64186;SDS011;50491;39.484;-8.540;2022-10-22T04:48:20;7.03;;;1.83;;
64186;SDS011;50491;39.484;-8.540;2022-10-22T04:53:04;7.45;;;2.08;;
64186;SDS011;50491;39.484;-8.540;2022-10-22T04:55:30;9.18;;;1.55;;
64186;SDS011;50491;39.484;-8.540;2022-10-22T04:57:49;18.42;;;2.33;;
64186;SDS011;50491;39.484;-8.540;2022-10-22T05:00:33;9.32;;;1.98;;
64186;SDS011;50491;39.484;-8.540;2022-10-22T05:02:53;10.95;;;2.33;;
64186;SDS011;50491;39.484;-8.540;2022-10-22T05:07:27;4.13;;;1.50;;
64186;SDS011;50491;39.484;-8.540;2022-10-22T05:09:28;12.85;;;1.63;;
64186;SDS011;50491;39.484;-8.540;2022-10-22T05:12:18;4.47;;;1.45;;
64186;SDS011;50491;39.484;-8.540;2022-10-22T05:15:09;5.40;;;1.50;;
64186;SDS011;50491;39.484;-8.540;2022-10-22T05:17:10;5.95;;;1.65;;
64186;SDS011;50491;39.484;-8.540;2022-10-22T05:19:13;3.55;;;1.42;;
64186;SDS011;50491;39.484;-8.540;2022-10-22T05:21:35;4.03;;;1.60;;
64186;SDS011;50491;39.484;-8.540;2022-10-22T05:23:57;5.70;;;1.58;;
64186;SDS011;50491;39.484;-8.540;2022-10-22T05:26:01;8.73;;;1.83;;
64186;SDS011;50491;39.484;-8.540;2022-10-22T05:28:03;2.72;;;1.70;;
64186;SDS011;50491;39.484;-8.540;2022-10-22T05:30:04;8.73;;;1.88;;
64186;SDS011;50491;39.484;-8.540;2022-10-22T05:32:55;6.50;;;2.00;;
64186;SDS011;50491;39.484;-8.540;2022-10-22T05:37:40;4.55;;;1.45;;
64186;SDS011;50491;39.484;-8.540;2022-10-22T05:43:09;3.08;;;1.48;;
64186;SDS011;50491;39.484;-8.540;2022-10-22T05:45:47;9.15;;;2.28;;
64186;SDS011;50491;39.484;-8.540;2022-10-22T05:48:07;5.72;;;2.45;;
64186;SDS011;50491;39.484;-8.540;2022-10-22T05:52:46;16.88;;;3.13;;
64186;SDS011;50491;39.484;-8.540;2022-10-22T05:55:12;6.65;;;3.28;;
64186;SDS011;50491;39.484;-8.540;2022-10-22T05:57:57;4.30;;;2.97;;
64186;SDS011;50491;39.484;-8.540;2022-10-22T06:00:04;11.43;;;3.67;;
64186;SDS011;50491;39.484;-8.540;2022-10-22T06:02:06;11.02;;;3.65;;
64186;SDS011;50491;39.484;-8.540;2022-10-22T06:08:55;5.75;;;2.22;;
64186;SDS011;50491;39.484;-8.540;2022-10-22T06:11:00;6.57;;;3.05;;
64186;SDS011;50491;39.484;-8.540;2022-10-22T06:13:01;8.98;;;3.90;;
64186;SDS011;50491;39.484;-8.540;2022-10-22T06:20:32;7.63;;;4.32;;
64186;SDS011;50491;39.484;-8.540;2022-10-22T06:23:10;11.15;;;5.22;;
64186;SDS011;50491;39.484;-8.540;2022-10-22T06:25:35;7.10;;;4.25;;
64186;SDS011;50491;39.484;-8.540;2022-10-22T06:28:02;9.20;;;4.40;;
64186;SDS011;50491;39.484;-8.540;2022-10-22T06:30:02;4.85;;;3.83;;
64186;SDS011;50491;39.484;-8.540;2022-10-22T06:37:08;8.63;;;2.45;;
64186;SDS011;50491;39.484;-8.540;2022-10-22T06:39:27;8.13;;;2.92;;
64186;SDS011;50491;39.484;-8.540;2022-10-22T06:41:46;7.82;;;3.25;;
64186;SDS011;50491;39.484;-8.540;2022-10-22T06:43:50;3.97;;;2.77;;
64186;SDS011;50491;39.484;-8.540;2022-10-22T06:45:51;10.77;;;2.88;;
64186;SDS011;50491;39.484;-8.540;2022-10-22T06:47:51;7.55;;;3.95;;
64186;SDS011;50491;39.484;-8.540;2022-10-22T06:49:52;7.15;;;2.95;;
64186;SDS011;50491;39.484;-8.540;2022-10-22T06:51:53;9.50;;;3.30;;
64186;SDS011;50491;39.484;-8.540;2022-10-22T06:54:44;14.48;;;2.65;;
64186;SDS011;50491;39.484;-8.540;2022-10-22T06:56:45;7.68;;;3.00;;
64186;SDS011;50491;39.484;-8.540;2022-10-22T06:58:46;12.65;;;2.80;;
64186;SDS011;50491;39.484;-8.540;2022-10-22T07:03:40;6.00;;;2.30;;
64186;SDS011;50491;39.484;-8.540;2022-10-22T07:06:31;8.27;;;1.75;;
64186;SDS011;50491;39.484;-8.540;2022-10-22T07:08:31;5.85;;;2.95;;
64186;SDS011;50491;39.484;-8.540;2022-10-22T07:10:53;3.35;;;2.05;;
64186;SDS011;50491;39.484;-8.540;2022-10-22T07:13:19;7.88;;;2.35;;
64186;SDS011;50491;39.484;-8.540;2022-10-22T07:15:50;6.63;;;3.33;;
64186;SDS011;50491;39.484;-8.540;2022-10-22T07:17:51;10.13;;;2.38;;
64186;SDS011;50491;39.484;-8.540;2022-10-22T07:22:49;5.15;;;2.88;;
64186;SDS011;50491;39.484;-8.540;2022-10-22T07:27:09;4.85;;;2.80;;
64186;SDS011;50491;39.484;-8.540;2022-10-22T07:35:59;3.20;;;2.17;;
64186;SDS011;50491;39.484;-8.540;2022-10-22T07:43:02;5.95;;;3.50;;
64186;SDS011;50491;39.484;-8.540;2022-10-22T07:45:03;8.18;;;2.80;;
64186;SDS011;50491;39.484;-8.540;2022-10-22T07:49:41;3.83;;;2.50;;
64186;SDS011;50491;39.484;-8.540;2022-10-22T07:52:26;7.13;;;2.17;;
64186;SDS011;50491;39.484;-8.540;2022-10-22T07:57:49;2.65;;;2.15;;
64186;SDS011;50491;39.484;-8.540;2022-10-22T07:59:50;5.32;;;2.75;;
64186;SDS011;50491;39.484;-8.540;2022-10-22T08:05:15;5.50;;;2.58;;
64186;SDS011;50491;39.484;-8.540;2022-10-22T08:07:16;5.40;;;1.70;;
64186;SDS011;50491;39.484;-8.540;2022-10-22T08:12:02;7.05;;;2.33;;
64186;SDS011;50491;39.484;-8.540;2022-10-22T08:14:53;6.78;;;1.77;;
64186;SDS011;50491;39.484;-8.540;2022-10-22T08:16:54;7.90;;;1.88;;
64186;SDS011;50491;39.484;-8.540;2022-10-22T08:21:58;3.78;;;2.08;;
64186;SDS011;50491;39.484;-8.540;2022-10-22T08:31:34;3.25;;;1.70;;
64186;SDS011;50491;39.484;-8.540;2022-10-22T08:34:11;3.78;;;1.75;;
64186;SDS011;50491;39.484;-8.540;2022-10-22T08:45:12;2.03;;;1.65;;
64186;SDS011;50491;39.484;-8.540;2022-10-22T08:50:53;3.65;;;1.58;;
64186;SDS011;50491;39.484;-8.540;2022-10-22T08:56:14;3.13;;;1.80;;
64186;SDS011;50491;39.484;-8.540;2022-10-22T08:58:48;2.70;;;1.42;;
64186;SDS011;50491;39.484;-8.540;2022-10-22T09:00:51;3.58;;;1.63;;
64186;SDS011;50491;39.484;-8.540;2022-10-22T09:07:48;3.42;;;1.80;;
64186;SDS011;50491;39.484;-8.540;2022-10-22T09:10:08;5.22;;;1.83;;
64186;SDS011;50491;39.484;-8.540;2022-10-22T09:12:13;9.02;;;1.63;;
64186;SDS011;50491;39.484;-8.540;2022-10-22T09:14:16;3.65;;;1.65;;
64186;SDS011;50491;39.484;-8.540;2022-10-22T09:16:41;4.40;;;1.52;;
64186;SDS011;50491;39.484;-8.540;2022-10-22T09:19:13;5.63;;;1.77;;
64186;SDS011;50491;39.484;-8.540;2022-10-22T09:24:08;6.00;;;2.13;;
64186;SDS011;50491;39.484;-8.540;2022-10-22T09:26:20;4.63;;;2.58;;
64186;SDS011;50491;39.484;-8.540;2022-10-22T09:28:21;4.47;;;2.15;;
64186;SDS011;50491;39.484;-8.540;2022-10-22T09:30:22;2.63;;;1.98;;
64186;SDS011;50491;39.484;-8.540;2022-10-22T09:32:53;6.15;;;2.63;;
64186;SDS011;50491;39.484;-8.540;2022-10-22T09:35:14;4.38;;;1.90;;
64186;SDS011;50491;39.484;-8.540;2022-10-22T09:37:24;4.65;;;2.20;;
64186;SDS011;50491;39.484;-8.540;2022-10-22T09:39:27;4.68;;;2.05;;
64186;SDS011;50491;39.484;-8.540;2022-10-22T09:41:32;5.25;;;2.30;;
64186;SDS011;50491;39.484;-8.540;2022-10-22T09:43:51;8.15;;;1.80;;
64186;SDS011;50491;39.484;-8.540;2022-10-22T09:46:18;9.63;;;2.40;;
64186;SDS011;50491;39.484;-8.540;2022-10-22T09:49:14;7.35;;;2.63;;
64186;SDS011;50491;39.484;-8.540;2022-10-22T09:51:36;3.47;;;2.10;;
64186;SDS011;50491;39.484;-8.540;2022-10-22T09:54:01;3.60;;;1.92;;
64186;SDS011;50491;39.484;-8.540;2022-10-22T09:56:09;8.48;;;1.77;;
64186;SDS011;50491;39.484;-8.540;2022-10-22T09:58:39;7.90;;;1.83;;
64186;SDS011;50491;39.484;-8.540;2022-10-22T10:00:43;5.80;;;1.77;;
64186;SDS011;50491;39.484;-8.540;2022-10-22T10:03:03;5.22;;;1.85;;
64186;SDS011;50491;39.484;-8.540;2022-10-22T10:08:19;6.18;;;1.98;;
64186;SDS011;50491;39.484;-8.540;2022-10-22T10:10:25;11.15;;;2.35;;
64186;SDS011;50491;39.484;-8.540;2022-10-22T10:21:46;13.27;;;3.00;;
64186;SDS011;50491;39.484;-8.540;2022-10-22T10:23:56;6.72;;;2.35;;
64186;SDS011;50491;39.484;-8.540;2022-10-22T10:26:19;8.18;;;2.83;;
64186;SDS011;50491;39.484;-8.540;2022-10-22T10:31:31;3.50;;;2.22;;
64186;SDS011;50491;39.484;-8.540;2022-10-22T10:36:34;7.93;;;2.35;;
64186;SDS011;50491;39.484;-8.540;2022-10-22T10:39:28;2.20;;;1.95;;
64186;SDS011;50491;39.484;-8.540;2022-10-22T10:49:54;9.00;;;2.85;;
64186;SDS011;50491;39.484;-8.540;2022-10-22T10:52:58;6.60;;;4.53;;
64186;SDS011;50491;39.484;-8.540;2022-10-22T10:57:17;7.53;;;2.08;;
64186;SDS011;50491;39.484;-8.540;2022-10-22T11:06:43;3.03;;;1.27;;
64186;SDS011;50491;39.484;-8.540;2022-10-22T11:12:01;1.48;;;1.00;;
64186;SDS011;50491;39.484;-8.540;2022-10-22T11:14:12;5.05;;;1.08;;
64186;SDS011;50491;39.484;-8.540;2022-10-22T11:18:28;2.17;;;1.00;;
64186;SDS011;50491;39.484;-8.540;2022-10-22T11:20:40;4.82;;;1.25;;
64186;SDS011;50491;39.484;-8.540;2022-10-22T11:22:56;4.03;;;1.90;;
64186;SDS011;50491;39.484;-8.540;2022-10-22T11:25:02;5.70;;;1.23;;
64186;SDS011;50491;39.484;-8.540;2022-10-22T11:27:29;3.92;;;1.35;;
64186;SDS011;50491;39.484;-8.540;2022-10-22T11:29:53;0.80;;;0.80;;
64186;SDS011;50491;39.484;-8.540;2022-10-22T11:32:17;1.17;;;1.08;;
64186;SDS011;50491;39.484;-8.540;2022-10-22T11:36:41;4.78;;;0.77;;
64186;SDS011;50491;39.484;-8.540;2022-10-22T11:38:42;3.00;;;0.90;;
64186;SDS011;50491;39.484;-8.540;2022-10-22T11:41:10;1.83;;;0.85;;
64186;SDS011;50491;39.484;-8.540;2022-10-22T11:46:57;1.60;;;1.50;;
64186;SDS011;50491;39.484;-8.540;2022-10-22T11:49:25;2.03;;;1.25;;
64186;SDS011;50491;39.484;-8.540;2022-10-22T11:52:04;3.40;;;1.52;;
64186;SDS011;50491;39.484;-8.540;2022-10-22T11:54:46;0.90;;;0.70;;
64186;SDS011;50491;39.484;-8.540;2022-10-22T11:59:37;0.65;;;0.60;;
64186;SDS011;50491;39.484;-8.540;2022-10-22T12:01:40;1.17;;;1.08;;
64186;SDS011;50491;39.484;-8.540;2022-10-22T12:09:19;1.63;;;1.27;;
64186;SDS011;50491;39.484;-8.540;2022-10-22T12:12:13;2.95;;;1.33;;
64186;SDS011;50491;39.484;-8.540;2022-10-22T12:14:33;1.67;;;0.50;;
64186;SDS011;50491;39.484;-8.540;2022-10-22T12:17:08;2.25;;;0.90;;
64186;SDS011;50491;39.484;-8.540;2022-10-22T12:19:15;2.63;;;0.57;;
64186;SDS011;50491;39.484;-8.540;2022-10-22T12:21:18;1.17;;;0.55;;
64186;SDS011;50491;39.484;-8.540;2022-10-22T12:23:18;4.13;;;0.60;;
64186;SDS011;50491;39.484;-8.540;2022-10-22T12:25:22;3.00;;;0.70;;
64186;SDS011;50491;39.484;-8.540;2022-10-22T12:27:25;2.72;;;0.90;;
64186;SDS011;50491;39.484;-8.540;2022-10-22T12:29:29;3.25;;;0.70;;
64186;SDS011;50491;39.484;-8.540;2022-10-22T12:31:49;1.25;;;0.38;;
64186;SDS011;50491;39.484;-8.540;2022-10-22T12:33:56;1.13;;;0.50;;
64186;SDS011;50491;39.484;-8.540;2022-10-22T12:35:58;3.28;;;1.95;;
64186;SDS011;50491;39.484;-8.540;2022-10-22T12:40:26;1.13;;;0.50;;
64186;SDS011;50491;39.484;-8.540;2022-10-22T12:42:32;3.45;;;0.70;;
64186;SDS011;50491;39.484;-8.540;2022-10-22T12:47:14;2.08;;;0.70;;
64186;SDS011;50491;39.484;-8.540;2022-10-22T12:49:38;5.75;;;0.60;;
64186;SDS011;50491;39.484;-8.540;2022-10-22T12:52:23;3.25;;;1.08;;
64186;SDS011;50491;39.484;-8.540;2022-10-22T12:55:17;3.15;;;0.63;;
64186;SDS011;50491;39.484;-8.540;2022-10-22T12:57:37;1.67;;;0.52;;
64186;SDS011;50491;39.484;-8.540;2022-10-22T12:59:57;2.58;;;0.68;;
64186;SDS011;50491;39.484;-8.540;2022-10-22T13:01:58;1.95;;;1.05;;
64186;SDS011;50491;39.484;-8.540;2022-10-22T13:11:46;1.48;;;0.60;;
64186;SDS011;50491;39.484;-8.540;2022-10-22T13:13:49;6.97;;;1.02;;
64186;SDS011;50491;39.484;-8.540;2022-10-22T13:16:16;2.97;;;0.70;;
64186;SDS011;50491;39.484;-8.540;2022-10-22T13:18:19;2.60;;;0.95;;
64186;SDS011;50491;39.484;-8.540;2022-10-22T13:20:24;3.35;;;0.70;;
64186;SDS011;50491;39.484;-8.540;2022-10-22T13:24:25;2.50;;;1.10;;
64186;SDS011;50491;39.484;-8.540;2022-10-22T13:26:29;2.75;;;1.30;;
64186;SDS011;50491;39.484;-8.540;2022-10-22T13:28:32;2.28;;;0.75;;
64186;SDS011;50491;39.484;-8.540;2022-10-22T13:30:33;3.40;;;1.00;;
64186;SDS011;50491;39.484;-8.540;2022-10-22T13:33:05;3.17;;;0.90;;
64186;SDS011;50491;39.484;-8.540;2022-10-22T13:35:53;4.30;;;1.08;;
64186;SDS011;50491;39.484;-8.540;2022-10-22T13:37:54;1.95;;;0.85;;
64186;SDS011;50491;39.484;-8.540;2022-10-22T13:39:55;2.20;;;0.90;;
64186;SDS011;50491;39.484;-8.540;2022-10-22T13:43:15;6.28;;;0.93;;
64186;SDS011;50491;39.484;-8.540;2022-10-22T13:45:16;6.78;;;1.20;;
64186;SDS011;50491;39.484;-8.540;2022-10-22T13:47:24;2.08;;;0.68;;
64186;SDS011;50491;39.484;-8.540;2022-10-22T13:49:26;6.32;;;1.25;;
64186;SDS011;50491;39.484;-8.540;2022-10-22T13:54:09;7.43;;;1.75;;
64186;SDS011;50491;39.484;-8.540;2022-10-22T13:56:33;5.00;;;1.10;;
64186;SDS011;50491;39.484;-8.540;2022-10-22T13:58:52;3.03;;;0.98;;
64186;SDS011;50491;39.484;-8.540;2022-10-22T14:00:53;5.82;;;1.10;;
64186;SDS011;50491;39.484;-8.540;2022-10-22T14:02:56;14.63;;;2.10;;
64186;SDS011;50491;39.484;-8.540;2022-10-22T14:04:57;5.93;;;1.25;;
64186;SDS011;50491;39.484;-8.540;2022-10-22T14:09:04;5.30;;;1.17;;
64186;SDS011;50491;39.484;-8.540;2022-10-22T14:11:48;5.20;;;1.10;;
64186;SDS011;50491;39.484;-8.540;2022-10-22T14:13:49;5.35;;;1.48;;
64186;SDS011;50491;39.484;-8.540;2022-10-22T14:18:20;6.47;;;2.15;;
64186;SDS011;50491;39.484;-8.540;2022-10-22T14:25:58;3.70;;;0.88;;
64186;SDS011;50491;39.484;-8.540;2022-10-22T14:35:20;3.95;;;1.30;;
64186;SDS011;50491;39.484;-8.540;2022-10-22T14:37:40;4.68;;;1.10;;
64186;SDS011;50491;39.484;-8.540;2022-10-22T14:39:41;5.10;;;0.85;;
64186;SDS011;50491;39.484;-8.540;2022-10-22T14:42:01;4.05;;;1.00;;
64186;SDS011;50491;39.484;-8.540;2022-10-22T14:44:21;3.10;;;0.80;;
64186;SDS011;50491;39.484;-8.540;2022-10-22T14:46:23;3.10;;;0.90;;
64186;SDS011;50491;39.484;-8.540;2022-10-22T14:48:42;5.93;;;1.10;;
64186;SDS011;50491;39.484;-8.540;2022-10-22T14:50:43;5.25;;;1.50;;
64186;SDS011;50491;39.484;-8.540;2022-10-22T14:52:44;6.20;;;1.23;;
64186;SDS011;50491;39.484;-8.540;2022-10-22T14:54:45;3.72;;;1.02;;
64186;SDS011;50491;39.484;-8.540;2022-10-22T15:00:02;3.00;;;1.02;;
64186;SDS011;50491;39.484;-8.540;2022-10-22T15:02:22;5.22;;;0.95;;
64186;SDS011;50491;39.484;-8.540;2022-10-22T15:04:23;6.95;;;1.20;;
64186;SDS011;50491;39.484;-8.540;2022-10-22T15:08:55;6.68;;;1.75;;
64186;SDS011;50491;39.484;-8.540;2022-10-22T15:11:03;5.75;;;1.23;;
64186;SDS011;50491;39.484;-8.540;2022-10-22T15:13:05;3.50;;;1.30;;
64186;SDS011;50491;39.484;-8.540;2022-10-22T15:15:24;1.77;;;0.82;;
64186;SDS011;50491;39.484;-8.540;2022-10-22T15:17:43;7.40;;;1.63;;
64186;SDS011;50491;39.484;-8.540;2022-10-22T15:20:03;2.65;;;1.15;;
64186;SDS011;50491;39.484;-8.540;2022-10-22T15:24:42;10.23;;;1.80;;
64186;SDS011;50491;39.484;-8.540;2022-10-22T15:29:03;11.68;;;3.58;;
64186;SDS011;50491;39.484;-8.540;2022-10-22T15:33:42;5.60;;;1.42;;
64186;SDS011;50491;39.484;-8.540;2022-10-22T15:39:05;4.38;;;1.55;;
64186;SDS011;50491;39.484;-8.540;2022-10-22T15:41:08;12.25;;;2.05;;
64186;SDS011;50491;39.484;-8.540;2022-10-22T15:43:11;11.15;;;2.00;;
64186;SDS011;50491;39.484;-8.540;2022-10-22T15:45:30;15.15;;;2.28;;
64186;SDS011;50491;39.484;-8.540;2022-10-22T15:47:56;8.88;;;2.03;;
64186;SDS011;50491;39.484;-8.540;2022-10-22T15:50:22;11.23;;;1.42;;
64186;SDS011;50491;39.484;-8.540;2022-10-22T15:52:41;7.78;;;2.05;;
64186;SDS011;50491;39.484;-8.540;2022-10-22T15:54:42;6.10;;;2.00;;
64186;SDS011;50491;39.484;-8.540;2022-10-22T15:57:01;3.53;;;1.73;;
64186;SDS011;50491;39.484;-8.540;2022-10-22T16:01:25;13.70;;;1.98;;
64186;SDS011;50491;39.484;-8.540;2022-10-22T16:03:52;5.65;;;1.70;;
64186;SDS011;50491;39.484;-8.540;2022-10-22T16:06:40;6.57;;;1.15;;
64186;SDS011;50491;39.484;-8.540;2022-10-22T16:11:06;4.63;;;1.30;;
64186;SDS011;50491;39.484;-8.540;2022-10-22T16:13:07;5.72;;;1.30;;
64186;SDS011;50491;39.484;-8.540;2022-10-22T16:15:08;7.20;;;1.50;;
64186;SDS011;50491;39.484;-8.540;2022-10-22T16:17:27;7.93;;;1.42;;
64186;SDS011;50491;39.484;-8.540;2022-10-22T16:19:29;3.20;;;1.58;;
64186;SDS011;50491;39.484;-8.540;2022-10-22T16:21:30;5.55;;;1.70;;
64186;SDS011;50491;39.484;-8.540;2022-10-22T16:23:55;5.60;;;2.50;;
64186;SDS011;50491;39.484;-8.540;2022-10-22T16:26:46;8.55;;;2.92;;
64186;SDS011;50491;39.484;-8.540;2022-10-22T16:28:47;6.10;;;2.60;;
64186;SDS011;50491;39.484;-8.540;2022-10-22T16:30:50;7.00;;;2.60;;
64186;SDS011;50491;39.484;-8.540;2022-10-22T16:32:50;7.93;;;2.38;;
64186;SDS011;50491;39.484;-8.540;2022-10-22T16:35:38;4.15;;;1.10;;
64186;SDS011;50491;39.484;-8.540;2022-10-22T16:38:05;2.20;;;1.30;;
64186;SDS011;50491;39.484;-8.540;2022-10-22T16:40:07;4.90;;;1.23;;
64186;SDS011;50491;39.484;-8.540;2022-10-22T16:42:09;6.07;;;1.52;;
64186;SDS011;50491;39.484;-8.540;2022-10-22T16:44:10;8.60;;;2.67;;
64186;SDS011;50491;39.484;-8.540;2022-10-22T16:46:12;11.38;;;3.42;;
64186;SDS011;50491;39.484;-8.540;2022-10-22T16:59:07;8.00;;;3.47;;
64186;SDS011;50491;39.484;-8.540;2022-10-22T17:01:08;9.82;;;3.70;;
64186;SDS011;50491;39.484;-8.540;2022-10-22T17:08:20;6.45;;;1.83;;
64186;SDS011;50491;39.484;-8.540;2022-10-22T17:10:21;3.85;;;2.15;;
64186;SDS011;50491;39.484;-8.540;2022-10-22T17:12:23;4.05;;;1.83;;
64186;SDS011;50491;39.484;-8.540;2022-10-22T17:17:14;7.88;;;2.10;;
64186;SDS011;50491;39.484;-8.540;2022-10-22T17:19:40;5.68;;;2.40;;
64186;SDS011;50491;39.484;-8.540;2022-10-22T17:21:41;8.05;;;2.10;;
64186;SDS011;50491;39.484;-8.540;2022-10-22T17:26:26;5.60;;;1.83;;
64186;SDS011;50491;39.484;-8.540;2022-10-22T17:36:23;3.92;;;1.55;;
64186;SDS011;50491;39.484;-8.540;2022-10-22T17:38:24;5.88;;;1.70;;
64186;SDS011;50491;39.484;-8.540;2022-10-22T17:40:25;5.78;;;1.60;;
64186;SDS011;50491;39.484;-8.540;2022-10-22T17:48:28;5.47;;;2.88;;
64186;SDS011;50491;39.484;-8.540;2022-10-22T17:53:08;3.92;;;2.50;;
64186;SDS011;50491;39.484;-8.540;2022-10-22T17:58:09;6.85;;;2.78;;